sensor_id;sensor_type;location;lat;lon;timestamp;pressure;altitude;pressure_sealevel;temperature;humidity
41044;BME280;51680;49.806;18.774;2023-07-22T00:00:54;96924.22;;;19.89;87.23
41044;BME280;51680;49.806;18.774;2023-07-22T00:03:56;96920.25;;;19.93;86.81
41044;BME280;51680;49.806;18.774;2023-07-22T00:06:59;96918.25;;;19.87;87.21
41044;BME280;51680;49.806;18.774;2023-07-22T00:10:01;96900.69;;;19.86;86.88
41044;BME280;51680;49.806;18.774;2023-07-22T00:13:03;96899.38;;;19.82;87.11
41044;BME280;51680;49.806;18.774;2023-07-22T00:16:04;96899.56;;;19.72;87.77
41044;BME280;51680;49.806;18.774;2023-07-22T00:19:08;96897.72;;;19.57;89.08
41044;BME280;51680;49.806;18.774;2023-07-22T00:22:11;96898.06;;;19.54;89.38
41044;BME280;51680;49.806;18.774;2023-07-22T00:25:13;96897.38;;;19.52;89.58
41044;BME280;51680;49.806;18.774;2023-07-22T00:28:15;96881.50;;;19.52;89.04
41044;BME280;51680;49.806;18.774;2023-07-22T00:31:17;96887.47;;;19.54;88.96
41044;BME280;51680;49.806;18.774;2023-07-22T00:34:18;96891.25;;;19.59;88.57
41044;BME280;51680;49.806;18.774;2023-07-22T00:37:22;96894.59;;;19.61;88.52
41044;BME280;51680;49.806;18.774;2023-07-22T00:40:24;96892.75;;;19.62;88.46
41044;BME280;51680;49.806;18.774;2023-07-22T00:43:26;96892.75;;;19.62;88.11
41044;BME280;51680;49.806;18.774;2023-07-22T00:46:27;96885.81;;;19.61;87.93
41044;BME280;51680;49.806;18.774;2023-07-22T00:49:29;96886.28;;;19.64;87.75
41044;BME280;51680;49.806;18.774;2023-07-22T00:52:33;96887.28;;;19.55;87.97
41044;BME280;51680;49.806;18.774;2023-07-22T00:55:39;96882.66;;;19.49;88.61
41044;BME280;51680;49.806;18.774;2023-07-22T00:58:41;96883.16;;;19.37;89.39
41044;BME280;51680;49.806;18.774;2023-07-22T01:01:43;96882.16;;;19.38;88.57
41044;BME280;51680;49.806;18.774;2023-07-22T01:04:44;96880.69;;;19.43;87.91
41044;BME280;51680;49.806;18.774;2023-07-22T01:07:48;96882.34;;;19.52;86.86
41044;BME280;51680;49.806;18.774;2023-07-22T01:10:50;96893.44;;;19.56;87.10
41044;BME280;51680;49.806;18.774;2023-07-22T01:13:51;96900.53;;;19.55;87.13
41044;BME280;51680;49.806;18.774;2023-07-22T01:16:58;96894.59;;;19.53;87.29
41044;BME280;51680;49.806;18.774;2023-07-22T01:20:00;96903.19;;;19.55;87.16
41044;BME280;51680;49.806;18.774;2023-07-22T01:23:05;96905.34;;;19.60;86.97
41044;BME280;51680;49.806;18.774;2023-07-22T01:26:07;96908.47;;;19.55;86.93
41044;BME280;51680;49.806;18.774;2023-07-22T01:29:09;96913.13;;;19.61;87.02
41044;BME280;51680;49.806;18.774;2023-07-22T01:32:11;96911.97;;;19.64;87.23
41044;BME280;51680;49.806;18.774;2023-07-22T01:35:12;96916.28;;;19.65;87.27
41044;BME280;51680;49.806;18.774;2023-07-22T01:38:16;96927.53;;;19.59;87.87
41044;BME280;51680;49.806;18.774;2023-07-22T01:41:18;96911.97;;;19.64;87.57
41044;BME280;51680;49.806;18.774;2023-07-22T01:44:19;96920.59;;;19.74;87.31
41044;BME280;51680;49.806;18.774;2023-07-22T01:47:21;96946.41;;;19.88;87.02
41044;BME280;51680;49.806;18.774;2023-07-22T01:50:23;96943.41;;;19.99;86.80
41044;BME280;51680;49.806;18.774;2023-07-22T01:53:26;96937.44;;;20.05;86.94
41044;BME280;51680;49.806;18.774;2023-07-22T01:56:28;96943.28;;;20.08;86.52
41044;BME280;51680;49.806;18.774;2023-07-22T01:59:30;96947.44;;;20.11;86.19
41044;BME280;51680;49.806;18.774;2023-07-22T02:02:32;96940.13;;;20.13;85.96
41044;BME280;51680;49.806;18.774;2023-07-22T02:05:34;96943.78;;;20.12;85.75
41044;BME280;51680;49.806;18.774;2023-07-22T02:08:37;96950.88;;;20.11;85.68
41044;BME280;51680;49.806;18.774;2023-07-22T02:11:39;96947.88;;;20.06;85.72
41044;BME280;51680;49.806;18.774;2023-07-22T02:14:41;96944.41;;;20.06;85.53
41044;BME280;51680;49.806;18.774;2023-07-22T02:17:44;96944.75;;;20.03;85.46
41044;BME280;51680;49.806;18.774;2023-07-22T02:20:46;96962.28;;;20.04;85.40
41044;BME280;51680;49.806;18.774;2023-07-22T02:23:49;96952.38;;;19.98;86.10
41044;BME280;51680;49.806;18.774;2023-07-22T02:26:50;96960.78;;;19.93;85.96
41044;BME280;51680;49.806;18.774;2023-07-22T02:29:52;96968.75;;;19.93;85.96
41044;BME280;51680;49.806;18.774;2023-07-22T02:32:54;96968.94;;;19.92;86.46
41044;BME280;51680;49.806;18.774;2023-07-22T02:35:56;96974.56;;;19.89;86.77
41044;BME280;51680;49.806;18.774;2023-07-22T02:38:59;96976.69;;;19.77;87.71
41044;BME280;51680;49.806;18.774;2023-07-22T02:42:01;96982.50;;;19.73;87.88
41044;BME280;51680;49.806;18.774;2023-07-22T02:45:03;96982.31;;;19.74;87.89
41044;BME280;51680;49.806;18.774;2023-07-22T02:48:06;96985.16;;;19.73;88.21
41044;BME280;51680;49.806;18.774;2023-07-22T02:51:09;96995.56;;;19.74;88.28
41044;BME280;51680;49.806;18.774;2023-07-22T02:54:12;96988.78;;;19.80;88.14
41044;BME280;51680;49.806;18.774;2023-07-22T02:57:14;96994.09;;;19.80;88.44
41044;BME280;51680;49.806;18.774;2023-07-22T03:00:18;97000.72;;;19.84;88.35
41044;BME280;51680;49.806;18.774;2023-07-22T03:03:23;97000.22;;;19.88;88.43
41044;BME280;51680;49.806;18.774;2023-07-22T03:06:25;97007.69;;;19.93;88.75
41044;BME280;51680;49.806;18.774;2023-07-22T03:09:30;97016.28;;;19.95;88.62
41044;BME280;51680;49.806;18.774;2023-07-22T03:12:33;97021.94;;;19.92;88.88
41044;BME280;51680;49.806;18.774;2023-07-22T03:15:34;97024.72;;;19.98;88.59
41044;BME280;51680;49.806;18.774;2023-07-22T03:18:36;97017.63;;;20.07;88.09
41044;BME280;51680;49.806;18.774;2023-07-22T03:21:40;97031.25;;;20.12;88.09
41044;BME280;51680;49.806;18.774;2023-07-22T03:24:43;97040.53;;;20.16;87.82
41044;BME280;51680;49.806;18.774;2023-07-22T03:27:45;97041.03;;;20.19;87.60
41044;BME280;51680;49.806;18.774;2023-07-22T03:30:47;97045.16;;;20.22;87.23
41044;BME280;51680;49.806;18.774;2023-07-22T03:33:49;97043.16;;;20.24;87.28
41044;BME280;51680;49.806;18.774;2023-07-22T03:36:50;97052.59;;;20.26;86.72
41044;BME280;51680;49.806;18.774;2023-07-22T03:39:54;97048.63;;;20.30;86.49
41044;BME280;51680;49.806;18.774;2023-07-22T03:42:56;97052.13;;;20.31;85.93
41044;BME280;51680;49.806;18.774;2023-07-22T03:45:59;97046.97;;;20.29;85.52
41044;BME280;51680;49.806;18.774;2023-07-22T03:49:00;97047.81;;;20.30;85.54
41044;BME280;51680;49.806;18.774;2023-07-22T03:52:03;97055.78;;;20.30;85.55
41044;BME280;51680;49.806;18.774;2023-07-22T03:55:08;97058.91;;;20.33;85.24
41044;BME280;51680;49.806;18.774;2023-07-22T03:58:10;97065.03;;;20.34;85.30
41044;BME280;51680;49.806;18.774;2023-07-22T04:01:11;97072.34;;;20.32;85.43
41044;BME280;51680;49.806;18.774;2023-07-22T04:04:13;97076.81;;;20.31;85.40
41044;BME280;51680;49.806;18.774;2023-07-22T04:07:15;97072.81;;;20.35;85.33
41044;BME280;51680;49.806;18.774;2023-07-22T04:10:18;97070.00;;;20.37;85.04
41044;BME280;51680;49.806;18.774;2023-07-22T04:13:20;97063.06;;;20.36;85.13
41044;BME280;51680;49.806;18.774;2023-07-22T04:16:22;97075.66;;;20.42;84.68
41044;BME280;51680;49.806;18.774;2023-07-22T04:19:24;97082.94;;;20.48;84.36
41044;BME280;51680;49.806;18.774;2023-07-22T04:22:27;97084.63;;;20.49;83.98
41044;BME280;51680;49.806;18.774;2023-07-22T04:25:30;97089.91;;;20.49;84.25
41044;BME280;51680;49.806;18.774;2023-07-22T04:28:32;97103.50;;;20.54;84.27
41044;BME280;51680;49.806;18.774;2023-07-22T04:31:33;97107.13;;;20.61;83.99
41044;BME280;51680;49.806;18.774;2023-07-22T04:34:35;97093.56;;;20.64;83.95
41044;BME280;51680;49.806;18.774;2023-07-22T04:37:37;97112.94;;;20.64;83.57
41044;BME280;51680;49.806;18.774;2023-07-22T04:40:43;97107.16;;;20.69;83.02
41044;BME280;51680;49.806;18.774;2023-07-22T04:43:45;97113.78;;;20.73;82.82
41044;BME280;51680;49.806;18.774;2023-07-22T04:46:47;97113.09;;;20.79;82.55
41044;BME280;51680;49.806;18.774;2023-07-22T04:49:49;97104.47;;;20.85;81.99
41044;BME280;51680;49.806;18.774;2023-07-22T04:52:51;97121.88;;;20.87;81.73
41044;BME280;51680;49.806;18.774;2023-07-22T04:55:54;97125.38;;;20.80;81.75
41044;BME280;51680;49.806;18.774;2023-07-22T04:58:56;97128.34;;;20.77;81.65
41044;BME280;51680;49.806;18.774;2023-07-22T05:01:58;97126.38;;;20.79;81.41
41044;BME280;51680;49.806;18.774;2023-07-22T05:05:00;97126.53;;;20.85;81.20
41044;BME280;51680;49.806;18.774;2023-07-22T05:08:01;97134.34;;;20.95;81.05
41044;BME280;51680;49.806;18.774;2023-07-22T05:11:06;97134.50;;;21.09;80.84
41044;BME280;51680;49.806;18.774;2023-07-22T05:14:08;97133.88;;;21.46;80.43
41044;BME280;51680;49.806;18.774;2023-07-22T05:17:10;97133.75;;;21.86;79.17
41044;BME280;51680;49.806;18.774;2023-07-22T05:20:12;97131.19;;;22.23;77.41
41044;BME280;51680;49.806;18.774;2023-07-22T05:23:14;97143.06;;;22.35;77.01
41044;BME280;51680;49.806;18.774;2023-07-22T05:26:17;97139.03;;;22.47;75.34
41044;BME280;51680;49.806;18.774;2023-07-22T05:29:18;97141.56;;;22.40;74.89
41044;BME280;51680;49.806;18.774;2023-07-22T05:32:20;97148.41;;;22.35;74.53
41044;BME280;51680;49.806;18.774;2023-07-22T05:35:22;97148.91;;;22.38;75.24
41044;BME280;51680;49.806;18.774;2023-07-22T05:38:24;97155.03;;;22.39;74.42
41044;BME280;51680;49.806;18.774;2023-07-22T05:41:27;97153.72;;;22.35;74.49
41044;BME280;51680;49.806;18.774;2023-07-22T05:44:29;97154.72;;;22.34;74.45
41044;BME280;51680;49.806;18.774;2023-07-22T05:47:30;97153.38;;;22.46;74.63
41044;BME280;51680;49.806;18.774;2023-07-22T05:50:32;97158.59;;;22.54;74.01
41044;BME280;51680;49.806;18.774;2023-07-22T05:53:34;97156.63;;;22.56;73.45
41044;BME280;51680;49.806;18.774;2023-07-22T05:56:37;97164.81;;;22.46;73.35
41044;BME280;51680;49.806;18.774;2023-07-22T05:59:39;97160.72;;;22.36;73.57
41044;BME280;51680;49.806;18.774;2023-07-22T06:02:41;97160.00;;;22.19;73.46
41044;BME280;51680;49.806;18.774;2023-07-22T06:05:43;97171.06;;;22.00;74.05
41044;BME280;51680;49.806;18.774;2023-07-22T06:08:45;97187.56;;;21.88;74.92
41044;BME280;51680;49.806;18.774;2023-07-22T06:11:48;97178.13;;;21.85;74.92
41044;BME280;51680;49.806;18.774;2023-07-22T06:14:50;97178.75;;;21.87;74.99
41044;BME280;51680;49.806;18.774;2023-07-22T06:17:51;97177.75;;;21.88;75.17
41044;BME280;51680;49.806;18.774;2023-07-22T06:20:53;97177.91;;;21.95;75.37
41044;BME280;51680;49.806;18.774;2023-07-22T06:23:55;97185.84;;;22.03;75.52
41044;BME280;51680;49.806;18.774;2023-07-22T06:26:58;97182.16;;;22.04;74.86
41044;BME280;51680;49.806;18.774;2023-07-22T06:30:00;97182.97;;;22.04;74.64
41044;BME280;51680;49.806;18.774;2023-07-22T06:33:01;97189.47;;;22.02;75.31
41044;BME280;51680;49.806;18.774;2023-07-22T06:36:04;97196.50;;;21.95;76.11
41044;BME280;51680;49.806;18.774;2023-07-22T06:39:06;97194.88;;;21.86;76.01
41044;BME280;51680;49.806;18.774;2023-07-22T06:42:09;97210.81;;;21.86;75.97
41044;BME280;51680;49.806;18.774;2023-07-22T06:45:10;97212.88;;;21.60;76.55
41044;BME280;51680;49.806;18.774;2023-07-22T06:48:12;97216.25;;;21.38;76.64
41044;BME280;51680;49.806;18.774;2023-07-22T06:51:14;97207.16;;;21.00;77.00
41044;BME280;51680;49.806;18.774;2023-07-22T06:54:17;97211.31;;;21.03;76.71
41044;BME280;51680;49.806;18.774;2023-07-22T06:57:20;97207.66;;;21.04;77.07
41044;BME280;51680;49.806;18.774;2023-07-22T07:00:22;97214.94;;;20.86;77.75
41044;BME280;51680;49.806;18.774;2023-07-22T07:03:23;97213.56;;;20.58;77.59
41044;BME280;51680;49.806;18.774;2023-07-22T07:06:25;97217.75;;;20.68;78.45
41044;BME280;51680;49.806;18.774;2023-07-22T07:09:27;97227.50;;;20.68;77.65
41044;BME280;51680;49.806;18.774;2023-07-22T07:12:30;97232.97;;;20.42;79.18
41044;BME280;51680;49.806;18.774;2023-07-22T07:15:32;97233.97;;;20.49;79.97
41044;BME280;51680;49.806;18.774;2023-07-22T07:18:35;97240.31;;;20.72;77.49
41044;BME280;51680;49.806;18.774;2023-07-22T07:21:37;97241.81;;;20.91;78.14
41044;BME280;51680;49.806;18.774;2023-07-22T07:24:38;97245.50;;;20.98;77.75
41044;BME280;51680;49.806;18.774;2023-07-22T07:27:41;97239.69;;;21.02;77.09
41044;BME280;51680;49.806;18.774;2023-07-22T07:30:43;97254.13;;;21.08;76.67
41044;BME280;51680;49.806;18.774;2023-07-22T07:33:46;97240.19;;;21.22;76.48
41044;BME280;51680;49.806;18.774;2023-07-22T07:36:47;97248.13;;;21.38;76.33
41044;BME280;51680;49.806;18.774;2023-07-22T07:39:49;97249.09;;;21.69;75.94
41044;BME280;51680;49.806;18.774;2023-07-22T07:42:53;97249.28;;;22.06;74.53
41044;BME280;51680;49.806;18.774;2023-07-22T07:46:14;97252.88;;;22.59;73.98
41044;BME280;51680;49.806;18.774;2023-07-22T07:49:18;97244.66;;;23.22;70.81
41044;BME280;51680;49.806;18.774;2023-07-22T07:52:19;97243.81;;;24.02;68.91
41044;BME280;51680;49.806;18.774;2023-07-22T07:55:21;97242.44;;;24.91;67.94
41044;BME280;51680;49.806;18.774;2023-07-22T07:58:24;97236.56;;;25.65;65.43
41044;BME280;51680;49.806;18.774;2023-07-22T08:01:26;97237.47;;;25.79;64.23
41044;BME280;51680;49.806;18.774;2023-07-22T08:04:28;97247.91;;;25.95;64.10
41044;BME280;51680;49.806;18.774;2023-07-22T08:07:29;97247.44;;;26.72;62.41
41044;BME280;51680;49.806;18.774;2023-07-22T08:10:31;97245.47;;;27.13;60.99
41044;BME280;51680;49.806;18.774;2023-07-22T08:13:34;97253.97;;;27.69;59.50
41044;BME280;51680;49.806;18.774;2023-07-22T08:16:36;97254.50;;;28.16;58.02
41044;BME280;51680;49.806;18.774;2023-07-22T08:19:38;97250.47;;;28.58;56.52
41044;BME280;51680;49.806;18.774;2023-07-22T08:22:40;97250.44;;;28.64;56.63
41044;BME280;51680;49.806;18.774;2023-07-22T08:25:41;97264.28;;;28.68;56.48
41044;BME280;51680;49.806;18.774;2023-07-22T08:28:44;97263.97;;;28.32;56.40
41044;BME280;51680;49.806;18.774;2023-07-22T08:31:47;97263.22;;;28.12;56.71
41044;BME280;51680;49.806;18.774;2023-07-22T08:34:48;97265.31;;;27.97;56.83
41044;BME280;51680;49.806;18.774;2023-07-22T08:37:50;97268.19;;;27.76;56.69
41044;BME280;51680;49.806;18.774;2023-07-22T08:40:52;97270.91;;;27.63;57.03
41044;BME280;51680;49.806;18.774;2023-07-22T08:43:56;97278.09;;;27.75;56.38
41044;BME280;51680;49.806;18.774;2023-07-22T08:47:01;97284.03;;;28.23;56.85
41044;BME280;51680;49.806;18.774;2023-07-22T08:50:06;97281.69;;;28.59;54.34
41044;BME280;51680;49.806;18.774;2023-07-22T08:53:08;97276.53;;;28.95;51.99
41044;BME280;51680;49.806;18.774;2023-07-22T08:56:10;97295.19;;;28.90;54.33
41044;BME280;51680;49.806;18.774;2023-07-22T08:59:13;97293.00;;;28.74;53.76
41044;BME280;51680;49.806;18.774;2023-07-22T09:02:16;97288.53;;;28.55;54.74
41044;BME280;51680;49.806;18.774;2023-07-22T09:05:19;97287.81;;;28.72;55.07
41044;BME280;51680;49.806;18.774;2023-07-22T09:08:21;97288.44;;;28.04;55.12
41044;BME280;51680;49.806;18.774;2023-07-22T09:11:23;97291.50;;;28.14;54.07
41044;BME280;51680;49.806;18.774;2023-07-22T09:14:27;97287.19;;;27.81;54.04
41044;BME280;51680;49.806;18.774;2023-07-22T09:17:32;97284.28;;;27.24;55.35
41044;BME280;51680;49.806;18.774;2023-07-22T09:20:34;97286.72;;;27.12;57.28
41044;BME280;51680;49.806;18.774;2023-07-22T09:23:37;97293.13;;;27.18;57.30
41044;BME280;51680;49.806;18.774;2023-07-22T09:26:43;97278.88;;;27.11;55.63
41044;BME280;51680;49.806;18.774;2023-07-22T09:29:46;97282.97;;;27.07;56.22
41044;BME280;51680;49.806;18.774;2023-07-22T09:32:49;97273.16;;;27.66;55.88
41044;BME280;51680;49.806;18.774;2023-07-22T09:35:51;97274.97;;;28.17;53.79
41044;BME280;51680;49.806;18.774;2023-07-22T09:39:00;97285.41;;;28.58;53.64
41044;BME280;51680;49.806;18.774;2023-07-22T09:42:03;97273.34;;;29.17;52.19
41044;BME280;51680;49.806;18.774;2023-07-22T09:45:08;97275.66;;;29.38;51.64
41044;BME280;51680;49.806;18.774;2023-07-22T09:48:10;97280.75;;;28.84;49.78
41044;BME280;51680;49.806;18.774;2023-07-22T09:51:12;97276.69;;;28.69;51.86
41044;BME280;51680;49.806;18.774;2023-07-22T09:54:15;97279.44;;;28.93;52.14
41044;BME280;51680;49.806;18.774;2023-07-22T09:57:18;97272.31;;;29.18;50.46
41044;BME280;51680;49.806;18.774;2023-07-22T10:00:24;97271.00;;;29.27;49.98
41044;BME280;51680;49.806;18.774;2023-07-22T10:03:28;97269.03;;;28.66;49.97
41044;BME280;51680;49.806;18.774;2023-07-22T10:06:30;97275.53;;;28.96;49.36
41044;BME280;51680;49.806;18.774;2023-07-22T10:09:33;97286.16;;;29.15;50.45
41044;BME280;51680;49.806;18.774;2023-07-22T10:12:40;97287.53;;;29.31;49.52
41044;BME280;51680;49.806;18.774;2023-07-22T10:15:45;97289.69;;;29.16;49.30
41044;BME280;51680;49.806;18.774;2023-07-22T10:18:48;97293.72;;;28.94;49.55
41044;BME280;51680;49.806;18.774;2023-07-22T10:21:50;97293.31;;;28.27;50.19
41044;BME280;51680;49.806;18.774;2023-07-22T10:24:52;97294.78;;;28.23;50.54
41044;BME280;51680;49.806;18.774;2023-07-22T10:27:55;97290.13;;;28.69;51.09
41044;BME280;51680;49.806;18.774;2023-07-22T10:30:58;97291.53;;;28.78;50.20
41044;BME280;51680;49.806;18.774;2023-07-22T10:34:00;97281.91;;;28.95;49.02
41044;BME280;51680;49.806;18.774;2023-07-22T10:37:02;97286.47;;;28.94;49.03
41044;BME280;51680;49.806;18.774;2023-07-22T10:40:19;97276.38;;;29.27;47.28
41044;BME280;51680;49.806;18.774;2023-07-22T10:43:27;97270.16;;;29.58;48.37
41044;BME280;51680;49.806;18.774;2023-07-22T10:46:33;97272.75;;;29.71;48.14
41044;BME280;51680;49.806;18.774;2023-07-22T10:49:53;97274.28;;;29.85;44.42
41044;BME280;51680;49.806;18.774;2023-07-22T10:53:00;97272.16;;;29.69;45.66
41044;BME280;51680;49.806;18.774;2023-07-22T10:56:11;97259.19;;;29.53;43.68
41044;BME280;51680;49.806;18.774;2023-07-22T10:59:13;97267.25;;;29.28;46.25
41044;BME280;51680;49.806;18.774;2023-07-22T11:02:24;97256.38;;;29.17;43.96
41044;BME280;51680;49.806;18.774;2023-07-22T11:05:47;97267.31;;;29.22;44.41
41044;BME280;51680;49.806;18.774;2023-07-22T11:08:49;97269.41;;;29.20;44.96
41044;BME280;51680;49.806;18.774;2023-07-22T11:11:53;97277.97;;;29.04;44.95
41044;BME280;51680;49.806;18.774;2023-07-22T11:15:02;97279.66;;;28.92;45.08
41044;BME280;51680;49.806;18.774;2023-07-22T11:18:08;97276.53;;;28.95;45.37
41044;BME280;51680;49.806;18.774;2023-07-22T11:21:10;97274.88;;;28.94;45.44
41044;BME280;51680;49.806;18.774;2023-07-22T11:24:13;97272.78;;;29.02;45.32
41044;BME280;51680;49.806;18.774;2023-07-22T11:27:15;97269.84;;;28.73;46.47
41044;BME280;51680;49.806;18.774;2023-07-22T11:30:17;97267.81;;;28.62;45.07
41044;BME280;51680;49.806;18.774;2023-07-22T11:33:20;97269.66;;;28.68;45.76
41044;BME280;51680;49.806;18.774;2023-07-22T11:36:22;97270.44;;;28.75;45.87
41044;BME280;51680;49.806;18.774;2023-07-22T11:39:24;97263.84;;;28.71;46.12
41044;BME280;51680;49.806;18.774;2023-07-22T11:42:26;97262.06;;;28.52;45.09
41044;BME280;51680;49.806;18.774;2023-07-22T11:45:28;97255.69;;;28.46;44.97
41044;BME280;51680;49.806;18.774;2023-07-22T11:48:31;97259.63;;;28.44;45.85
41044;BME280;51680;49.806;18.774;2023-07-22T11:51:33;97253.44;;;28.43;45.41
41044;BME280;51680;49.806;18.774;2023-07-22T11:54:37;97251.75;;;28.49;43.90
41044;BME280;51680;49.806;18.774;2023-07-22T11:57:40;97261.09;;;28.27;44.01
41044;BME280;51680;49.806;18.774;2023-07-22T12:00:42;97255.72;;;28.27;45.15
41044;BME280;51680;49.806;18.774;2023-07-22T12:03:46;97257.63;;;28.13;44.46
41044;BME280;51680;49.806;18.774;2023-07-22T12:06:48;97259.47;;;28.13;45.09
41044;BME280;51680;49.806;18.774;2023-07-22T12:09:51;97248.69;;;28.32;44.46
41044;BME280;51680;49.806;18.774;2023-07-22T12:12:53;97247.44;;;28.35;44.81
41044;BME280;51680;49.806;18.774;2023-07-22T12:16:01;97239.16;;;28.43;44.28
41044;BME280;51680;49.806;18.774;2023-07-22T12:19:06;97247.38;;;28.54;44.42
41044;BME280;51680;49.806;18.774;2023-07-22T12:22:09;97234.97;;;28.60;44.54
41044;BME280;51680;49.806;18.774;2023-07-22T12:25:11;97232.41;;;28.21;43.92
41044;BME280;51680;49.806;18.774;2023-07-22T12:28:12;97224.31;;;28.34;43.88
41044;BME280;51680;49.806;18.774;2023-07-22T12:31:15;97223.63;;;28.51;44.31
41044;BME280;51680;49.806;18.774;2023-07-22T12:34:19;97223.84;;;28.50;44.00
41044;BME280;51680;49.806;18.774;2023-07-22T12:37:21;97212.25;;;28.56;44.41
41044;BME280;51680;49.806;18.774;2023-07-22T12:40:22;97219.59;;;28.67;44.02
41044;BME280;51680;49.806;18.774;2023-07-22T12:43:25;97210.50;;;28.74;43.46
41044;BME280;51680;49.806;18.774;2023-07-22T12:46:26;97211.66;;;28.85;43.49
41044;BME280;51680;49.806;18.774;2023-07-22T12:49:29;97209.97;;;28.90;43.19
41044;BME280;51680;49.806;18.774;2023-07-22T12:52:31;97204.50;;;28.72;42.57
41044;BME280;51680;49.806;18.774;2023-07-22T12:55:33;97212.19;;;28.69;41.52
41044;BME280;51680;49.806;18.774;2023-07-22T12:58:35;97198.56;;;28.64;41.84
41044;BME280;51680;49.806;18.774;2023-07-22T13:01:37;97203.63;;;28.41;41.58
41044;BME280;51680;49.806;18.774;2023-07-22T13:04:43;97203.84;;;28.33;41.37
41044;BME280;51680;49.806;18.774;2023-07-22T13:07:45;97198.69;;;28.31;42.42
41044;BME280;51680;49.806;18.774;2023-07-22T13:10:46;97200.72;;;28.36;43.30
41044;BME280;51680;49.806;18.774;2023-07-22T13:13:48;97199.38;;;28.14;42.05
41044;BME280;51680;49.806;18.774;2023-07-22T13:16:50;97203.78;;;27.89;42.23
41044;BME280;51680;49.806;18.774;2023-07-22T13:19:53;97197.22;;;27.59;42.86
41044;BME280;51680;49.806;18.774;2023-07-22T13:22:56;97197.41;;;27.57;43.00
41044;BME280;51680;49.806;18.774;2023-07-22T13:25:58;97196.38;;;27.52;43.17
41044;BME280;51680;49.806;18.774;2023-07-22T13:28:59;97191.22;;;27.57;42.46
41044;BME280;51680;49.806;18.774;2023-07-22T13:32:01;97195.97;;;27.55;42.32
41044;BME280;51680;49.806;18.774;2023-07-22T13:35:06;97196.56;;;27.57;42.67
41044;BME280;51680;49.806;18.774;2023-07-22T13:38:09;97198.66;;;27.61;43.05
41044;BME280;51680;49.806;18.774;2023-07-22T13:41:11;97199.88;;;27.72;43.61
41044;BME280;51680;49.806;18.774;2023-07-22T13:44:12;97196.34;;;27.78;43.08
41044;BME280;51680;49.806;18.774;2023-07-22T13:47:14;97204.84;;;27.81;43.46
41044;BME280;51680;49.806;18.774;2023-07-22T13:50:18;97198.41;;;27.76;43.11
41044;BME280;51680;49.806;18.774;2023-07-22T13:53:20;97203.38;;;27.72;43.29
41044;BME280;51680;49.806;18.774;2023-07-22T13:56:22;97208.34;;;27.75;43.50
41044;BME280;51680;49.806;18.774;2023-07-22T13:59:24;97206.03;;;27.79;43.16
41044;BME280;51680;49.806;18.774;2023-07-22T14:02:26;97206.69;;;27.81;43.00
41044;BME280;51680;49.806;18.774;2023-07-22T14:05:29;97195.13;;;27.87;42.89
41044;BME280;51680;49.806;18.774;2023-07-22T14:08:31;97202.13;;;27.88;43.04
41044;BME280;51680;49.806;18.774;2023-07-22T14:11:34;97197.56;;;27.95;42.78
41044;BME280;51680;49.806;18.774;2023-07-22T14:14:36;97212.84;;;28.01;42.60
41044;BME280;51680;49.806;18.774;2023-07-22T14:17:38;97212.41;;;28.04;42.72
41044;BME280;51680;49.806;18.774;2023-07-22T14:20:41;97201.25;;;28.07;42.84
41044;BME280;51680;49.806;18.774;2023-07-22T14:23:43;97213.25;;;27.98;42.64
41044;BME280;51680;49.806;18.774;2023-07-22T14:26:45;97200.06;;;27.90;42.22
41044;BME280;51680;49.806;18.774;2023-07-22T14:29:47;97206.28;;;27.84;42.15
41044;BME280;51680;49.806;18.774;2023-07-22T14:32:49;97200.06;;;27.83;42.29
41044;BME280;51680;49.806;18.774;2023-07-22T14:35:52;97206.28;;;27.84;42.58
41044;BME280;51680;49.806;18.774;2023-07-22T14:38:54;97212.47;;;27.84;42.77
41044;BME280;51680;49.806;18.774;2023-07-22T14:41:56;97205.44;;;27.90;43.30
41044;BME280;51680;49.806;18.774;2023-07-22T14:44:58;97205.22;;;27.98;42.99
41044;BME280;51680;49.806;18.774;2023-07-22T14:47:59;97199.19;;;28.02;42.36
41044;BME280;51680;49.806;18.774;2023-07-22T14:51:03;97199.63;;;27.99;41.99
41044;BME280;51680;49.806;18.774;2023-07-22T14:54:04;97206.47;;;27.95;42.32
41044;BME280;51680;49.806;18.774;2023-07-22T14:57:06;97201.28;;;27.94;42.53
41044;BME280;51680;49.806;18.774;2023-07-22T15:00:09;97210.38;;;27.93;43.38
41044;BME280;51680;49.806;18.774;2023-07-22T15:03:12;97209.59;;;27.86;43.79
41044;BME280;51680;49.806;18.774;2023-07-22T15:06:15;97212.88;;;27.81;43.46
41044;BME280;51680;49.806;18.774;2023-07-22T15:09:18;97210.22;;;27.55;43.77
41044;BME280;51680;49.806;18.774;2023-07-22T15:12:21;97210.44;;;27.54;43.70
41044;BME280;51680;49.806;18.774;2023-07-22T15:15:22;97202.38;;;27.54;43.70
41044;BME280;51680;49.806;18.774;2023-07-22T15:18:24;97202.38;;;27.54;43.70
41044;BME280;51680;49.806;18.774;2023-07-22T15:21:27;97201.34;;;27.55;43.32
41044;BME280;51680;49.806;18.774;2023-07-22T15:24:29;97205.06;;;27.60;44.21
41044;BME280;51680;49.806;18.774;2023-07-22T15:27:31;97200.69;;;27.66;43.21
41044;BME280;51680;49.806;18.774;2023-07-22T15:30:32;97197.19;;;27.72;43.27
41044;BME280;51680;49.806;18.774;2023-07-22T15:33:34;97191.84;;;27.72;43.74
41044;BME280;51680;49.806;18.774;2023-07-22T15:36:38;97199.44;;;27.75;43.16
41044;BME280;51680;49.806;18.774;2023-07-22T15:39:39;97195.97;;;27.74;42.50
41044;BME280;51680;49.806;18.774;2023-07-22T15:42:41;97194.72;;;27.77;42.17
41044;BME280;51680;49.806;18.774;2023-07-22T15:45:43;97195.13;;;27.74;42.97
41044;BME280;51680;49.806;18.774;2023-07-22T15:48:45;97183.16;;;27.70;41.94
41044;BME280;51680;49.806;18.774;2023-07-22T15:51:48;97190.41;;;27.63;42.05
41044;BME280;51680;49.806;18.774;2023-07-22T15:54:50;97197.22;;;27.52;43.08